Time;durP1;ratioP1;P1;durP2;ratioP2;P2;SDS_P1;SDS_P2;PMS_P1;PMS_P2;Temp;Humidity;BMP_temperature;BMP_pressure;BME280_temperature;BME280_humidity;BME280_pressure;Samples;Min_cycle;Max_cycle;Signal;HPM_P1;HPM_P2
2022/04/04 00:01:01;;;;;;;5.75;3.53;;;;;;;-1.58;73.01;99068.28;4379056;32;20474;-71
2022/04/04 00:03:29;;;;;;;8.73;3.40;;;;;;;-1.75;73.69;99079.16;4379214;32;20129;-71
2022/04/04 00:05:56;;;;;;;4.32;3.25;;;;;;;-1.81;74.70;99075.06;4379149;32;20146;-71
2022/04/04 00:08:23;;;;;;;6.43;3.62;;;;;;;-1.97;75.40;99084.97;4379076;32;20113;-71
2022/04/04 00:10:51;;;;;;;5.60;3.40;;;;;;;-1.91;75.25;99089.09;4379027;32;20103;-71
2022/04/04 00:13:18;;;;;;;7.40;3.53;;;;;;;-1.87;73.87;99080.41;4378996;32;20388;-71
2022/04/04 00:15:47;;;;;;;6.53;3.62;;;;;;;-1.90;74.45;99085.63;4378997;32;20115;-70
2022/04/04 00:18:15;;;;;;;5.82;3.70;;;;;;;-1.86;73.62;99080.34;4378891;32;20102;-71
2022/04/04 00:20:42;;;;;;;7.25;3.42;;;;;;;-1.73;73.14;99079.91;4379198;32;20468;-71
2022/04/04 00:23:12;;;;;;;7.97;4.35;;;;;;;-1.70;72.71;99083.22;4379043;32;20102;-70
2022/04/04 00:25:41;;;;;;;7.53;3.58;;;;;;;-1.97;72.98;99084.97;4378772;32;20441;-70
2022/04/04 00:28:08;;;;;;;6.85;3.35;;;;;;;-1.69;72.25;99074.62;4378809;32;20078;-71
2022/04/04 00:30:36;;;;;;;7.50;3.50;;;;;;;-1.72;71.88;99079.88;4378832;32;20461;-71
2022/04/04 00:33:05;;;;;;;5.85;3.42;;;;;;;-1.77;72.64;99070.63;4378170;32;20106;-71
2022/04/04 00:35:32;;;;;;;10.57;4.07;;;;;;;-1.91;73.07;99076.25;4379050;32;20082;-70
2022/04/04 00:38:01;;;;;;;7.18;4.40;;;;;;;-2.00;73.33;99083.38;4378634;32;20110;-71
2022/04/04 00:40:28;;;;;;;8.82;4.18;;;;;;;-1.86;73.02;99076.91;4378581;32;20103;-71
2022/04/04 00:42:56;;;;;;;7.53;3.85;;;;;;;-2.10;74.10;99076.03;4378591;32;20094;-71
2022/04/04 00:45:23;;;;;;;7.47;3.97;;;;;;;-1.94;73.70;99074.59;4378639;32;20171;-71
2022/04/04 00:47:50;;;;;;;7.32;4.28;;;;;;;-1.93;72.71;99081.44;4378561;32;20091;-71
2022/04/04 00:50:17;;;;;;;7.82;3.72;;;;;;;-1.87;71.08;99080.41;4378688;32;20127;-71
2022/04/04 00:52:44;;;;;;;5.97;3.45;;;;;;;-1.97;72.80;99080.72;4378705;32;20086;-71
2022/04/04 00:55:12;;;;;;;8.30;4.47;;;;;;;-1.89;72.61;99072.75;4378468;32;20095;-71
2022/04/04 00:57:39;;;;;;;7.57;3.95;;;;;;;-1.83;72.35;99069.13;4378558;32;20130;-71
2022/04/04 01:00:11;;;;;;;7.07;4.25;;;;;;;-1.77;71.62;99068.94;4378416;32;20199;-71
2022/04/04 01:02:40;;;;;;;14.02;4.60;;;;;;;-1.89;73.15;99071.87;4378342;32;20514;-71
2022/04/04 01:05:09;;;;;;;7.15;4.25;;;;;;;-1.90;73.60;99077.94;4378426;32;20102;-71
2022/04/04 01:07:38;;;;;;;8.68;4.28;;;;;;;-1.97;73.81;99079.84;4378186;32;20125;-71
2022/04/04 01:10:07;;;;;;;8.00;4.43;;;;;;;-1.89;73.58;99072.75;4378280;32;20567;-71
2022/04/04 01:12:34;;;;;;;11.35;4.68;;;;;;;-1.90;73.68;99065.91;4378387;32;20090;-71
2022/04/04 01:15:02;;;;;;;7.95;4.07;;;;;;;-2.22;75.61;99072.13;4378234;32;20445;-71
2022/04/04 01:17:30;;;;;;;7.00;4.15;;;;;;;-2.11;75.58;99067.47;4378045;32;20129;-71
2022/04/04 01:19:57;;;;;;;8.30;4.20;;;;;;;-2.01;75.37;99073.16;4378236;32;20515;-71
2022/04/04 01:22:25;;;;;;;6.87;3.92;;;;;;;-2.04;75.28;99076.66;4378340;32;20133;-71
2022/04/04 01:24:52;;;;;;;8.40;4.60;;;;;;;-2.29;76.28;99084.28;4377841;32;20472;-71
2022/04/04 01:27:20;;;;;;;7.95;4.32;;;;;;;-2.13;75.96;99084.66;4377933;32;20401;-71
2022/04/04 01:29:47;;;;;;;10.57;4.53;;;;;;;-2.11;75.95;99080.31;4378037;32;20122;-71
2022/04/04 01:32:14;;;;;;;6.47;3.95;;;;;;;-2.16;76.25;99088.16;4377902;32;20099;-71
2022/04/04 01:34:41;;;;;;;7.78;4.35;;;;;;;-2.11;76.38;99089.75;4377976;32;20090;-72
2022/04/04 01:37:08;;;;;;;8.25;3.95;;;;;;;-1.94;76.00;99089.19;4377979;32;20109;-71
2022/04/04 01:39:36;;;;;;;6.45;3.90;;;;;;;-1.93;76.10;99080.59;4377841;32;20469;-71
2022/04/04 01:42:04;;;;;;;7.65;3.90;;;;;;;-1.86;75.98;99092.31;4377801;32;20103;-71
2022/04/04 01:44:31;;;;;;;6.07;3.95;;;;;;;-1.98;76.26;99078.19;4378407;32;20090;-71
2022/04/04 01:47:00;;;;;;;4.62;3.20;;;;;;;-1.92;76.61;99084.81;4380223;32;20133;-71
2022/04/04 01:49:27;;;;;;;5.95;4.18;;;;;;;-2.08;76.63;99087.91;4380305;32;20095;-71
2022/04/04 01:51:54;;;;;;;7.90;4.30;;;;;;;-2.15;76.98;99087.28;4379939;32;20098;-71
2022/04/04 01:54:21;;;;;;;6.95;3.75;;;;;;;-2.09;77.38;99086.25;4380006;32;20129;-71
2022/04/04 01:56:48;;;;;;;6.43;3.78;;;;;;;-2.13;77.26;99082.09;4380081;32;20117;-71
2022/04/04 01:59:16;;;;;;;6.10;3.95;;;;;;;-2.25;78.06;99085.06;4379920;32;20455;-71
2022/04/04 02:01:44;;;;;;;10.43;4.87;;;;;;;-2.18;77.52;99077.09;4379940;32;20174;-71
2022/04/04 02:04:12;;;;;;;6.05;4.05;;;;;;;-2.10;76.46;99084.56;4379963;32;20112;-71
2022/04/04 02:06:39;;;;;;;8.27;4.10;;;;;;;-2.17;75.91;99083.06;4379927;32;20109;-72
2022/04/04 02:09:07;;;;;;;7.80;3.70;;;;;;;-2.09;75.31;99078.53;4380019;32;20103;-71
2022/04/04 02:11:34;;;;;;;8.23;4.18;;;;;;;-2.08;75.43;99084.50;4379832;32;20162;-71
2022/04/04 02:14:03;;;;;;;5.15;3.58;;;;;;;-2.16;75.39;99071.94;4379924;32;20474;-71
2022/04/04 02:16:30;;;;;;;6.85;4.18;;;;;;;-2.17;75.22;99078.75;4379886;32;20440;-71
2022/04/04 02:18:58;;;;;;;8.07;3.97;;;;;;;-2.22;75.59;99074.69;4379798;32;20154;-71
2022/04/04 02:21:26;;;;;;;6.75;4.32;;;;;;;-2.21;75.41;99071.22;4379872;32;20098;-71
2022/04/04 02:23:53;;;;;;;10.75;4.43;;;;;;;-2.21;75.31;99066.09;4380069;32;20144;-72
2022/04/04 02:26:21;;;;;;;9.20;4.62;;;;;;;-2.17;74.86;99068.50;4379709;32;20086;-71
2022/04/04 02:28:48;;;;;;;5.90;4.00;;;;;;;-2.06;73.19;99075.88;4379883;32;20099;-71
2022/04/04 02:31:15;;;;;;;8.93;3.70;;;;;;;-2.10;73.03;99064.03;4379803;32;20121;-71
2022/04/04 02:33:43;;;;;;;7.12;4.57;;;;;;;-2.32;73.90;99075.00;4379698;32;20078;-71
2022/04/04 02:36:11;;;;;;;6.05;3.83;;;;;;;-2.42;74.10;99067.59;4379744;32;20145;-71
2022/04/04 02:38:39;;;;;;;7.93;3.58;;;;;;;-2.41;73.37;99072.69;4379785;32;20161;-71
2022/04/04 02:41:06;;;;;;;7.20;3.10;;;;;;;-2.29;72.79;99073.19;4379672;32;20113;-71
2022/04/04 02:43:33;;;;;;;6.07;3.20;;;;;;;-2.37;nan;99074.28;4379687;32;20074;-71
2022/04/04 02:46:00;;;;;;;5.25;3.17;;;;;;;-2.39;71.39;99073.50;4379608;32;20078;-71
2022/04/04 02:48:28;;;;;;;5.60;3.45;;;;;;;-2.24;70.02;99072.19;4379729;32;20122;-71
2022/04/04 02:50:56;;;;;;;5.68;3.42;;;;;;;-2.09;69.72;99073.41;4379889;32;20086;-71
2022/04/04 02:53:23;;;;;;;5.35;3.53;;;;;;;-2.35;69.48;99075.09;4379628;32;20102;-71
2022/04/04 02:58:37;;;;;;;4.70;3.05;;;;;;;-2.52;70.40;99082.47;4379943;32;20091;-71
2022/04/04 03:01:04;;;;;;;7.00;3.25;;;;;;;-2.33;69.67;99072.47;4379505;32;20496;-71
2022/04/04 03:03:32;;;;;;;3.62;2.67;;;;;;;-2.26;69.08;99081.63;4379422;32;20105;-71
2022/04/04 03:05:59;;;;;;;6.97;3.30;;;;;;;-2.37;69.52;99081.97;4379571;32;20342;-71
2022/04/04 03:08:26;;;;;;;5.03;3.00;;;;;;;-2.44;69.33;99089.91;4379421;32;20157;-71
2022/04/04 03:10:54;;;;;;;3.90;2.60;;;;;;;-2.22;68.33;99084.97;4366097;32;20165;-71
2022/04/04 03:13:21;;;;;;;3.47;2.60;;;;;;;-2.20;67.85;99088.31;4379437;32;20116;-72
2022/04/04 03:15:50;;;;;;;6.20;2.90;;;;;;;-2.24;68.03;99081.59;4379490;32;20153;-72
2022/04/04 03:18:17;;;;;;;4.28;2.70;;;;;;;-2.32;67.79;99090.38;4379481;32;20586;-71
2022/04/04 03:20:50;;;;;;;4.70;3.03;;;;;;;-2.15;67.25;99086.41;4379486;32;20511;-72
2022/04/04 03:23:18;;;;;;;4.47;3.10;;;;;;;-2.17;67.17;99085.63;4379453;32;20126;-71
2022/04/04 03:25:45;;;;;;;4.10;2.85;;;;;;;-2.30;67.17;99081.78;4379018;32;20154;-71
2022/04/04 03:28:13;;;;;;;4.97;2.30;;;;;;;-2.23;67.14;99088.41;4379374;32;20091;-71
2022/04/04 03:30:40;;;;;;;6.05;2.87;;;;;;;-2.11;66.49;99090.56;4379329;32;20106;-71
2022/04/04 03:33:07;;;;;;;5.07;3.15;;;;;;;-2.19;67.03;99085.69;4379339;32;20578;-71
2022/04/04 03:35:35;;;;;;;7.20;3.50;;;;;;;-2.36;68.30;99093.94;4379566;32;20091;-71
2022/04/04 03:38:03;;;;;;;7.18;3.35;;;;;;;-2.36;68.52;99087.97;4379549;32;20496;-71
2022/04/04 03:40:30;;;;;;;6.75;3.45;;;;;;;-2.35;68.90;99099.88;4379425;32;20137;-71
2022/04/04 03:42:59;;;;;;;5.20;2.80;;;;;;;-2.34;68.71;99093.87;4379540;32;20107;-71
2022/04/04 03:45:26;;;;;;;6.70;2.78;;;;;;;-2.37;68.92;99089.66;4379374;32;20421;-71
2022/04/04 03:47:54;;;;;;;6.30;3.53;;;;;;;-2.38;69.49;99095.69;4379224;32;20096;-71
2022/04/04 03:50:23;;;;;;;6.62;3.22;;;;;;;-2.42;69.65;99096.69;4379245;32;20109;-71
2022/04/04 03:52:55;;;;;;;9.07;3.70;;;;;;;-2.55;70.38;99100.50;4379198;32;20486;-71
2022/04/04 03:55:26;;;;;;;4.62;2.78;;;;;;;-2.45;69.99;99094.22;4379183;32;20099;-71
2022/04/04 03:57:53;;;;;;;5.60;3.03;;;;;;;-2.57;70.65;99094.59;4379395;32;20110;-72
2022/04/04 04:00:22;;;;;;;7.78;3.25;;;;;;;-2.32;70.35;99098.09;4379196;32;20120;-72
2022/04/04 04:02:50;;;;;;;7.07;3.40;;;;;;;-2.25;70.05;99097.88;4378941;32;20082;-71
2022/04/04 04:05:17;;;;;;;5.53;2.95;;;;;;;-2.53;70.39;99102.16;4379064;32;20091;-71
2022/04/04 04:07:44;;;;;;;5.53;3.17;;;;;;;-2.58;70.52;99108.28;4377886;32;20121;-71
2022/04/04 04:10:12;;;;;;;5.80;3.28;;;;;;;-2.64;70.60;99108.47;4379075;32;20111;-71
2022/04/04 04:12:44;;;;;;;4.93;3.05;;;;;;;-2.58;69.76;99108.28;4378993;32;20090;-71
2022/04/04 04:18:41;;;;;;;4.45;2.78;;;;;;;-2.42;67.43;99104.38;4378898;32;20137;-72
2022/04/04 04:21:10;;;;;;;5.82;3.37;;;;;;;-2.22;65.84;99106.31;4378536;32;20524;-72
2022/04/04 04:23:43;;;;;;;4.87;3.05;;;;;;;-2.15;65.08;99102.66;4378638;32;20666;-72
2022/04/04 04:26:13;;;;;;;5.40;2.85;;;;;;;-2.09;64.82;99104.22;4378339;32;20083;-72
2022/04/04 04:28:42;;;;;;;6.05;2.92;;;;;;;-2.30;66.97;99099.75;4378513;32;20083;-72
2022/04/04 04:31:10;;;;;;;3.12;2.28;;;;;;;-2.36;66.48;99103.34;4378854;32;20094;-71
2022/04/04 04:33:37;;;;;;;6.03;2.47;;;;;;;-2.39;66.86;99098.28;4378386;32;20090;-71
2022/04/04 04:36:04;;;;;;;7.37;3.00;;;;;;;-2.43;67.32;99104.44;4378615;32;20396;-71
2022/04/04 04:38:31;;;;;;;6.10;2.97;;;;;;;-2.41;67.22;99106.03;4378797;32;20095;-71
2022/04/04 04:40:58;;;;;;;4.55;2.60;;;;;;;-2.52;68.18;99105.53;4377515;32;20098;-73
2022/04/04 04:43:26;;;;;;;9.50;3.45;;;;;;;-2.52;68.73;99102.97;4378321;32;20113;-72
2022/04/04 04:45:54;;;;;;;4.57;3.05;;;;;;;-2.45;68.60;99111.31;4378248;32;20213;-71
2022/04/04 04:48:21;;;;;;;6.85;3.00;;;;;;;-2.14;68.45;99104.34;4378172;32;20437;-71
2022/04/04 04:50:48;;;;;;;6.22;2.80;;;;;;;-1.96;68.56;99105.47;4378043;32;20094;-70
2022/04/04 04:53:16;;;;;;;4.78;3.40;;;;;;;-1.92;66.92;99113.94;4378273;32;20163;-70
2022/04/04 04:59:14;;;;;;;5.90;2.97;;;;;;;-1.74;66.56;99122.75;4378256;32;20130;-70
2022/04/04 05:01:41;;;;;;;7.07;3.00;;;;;;;-1.40;64.06;99111.31;4378181;32;20124;-70
2022/04/04 05:04:09;;;;;;;5.40;3.03;;;;;;;-1.28;64.75;99121.16;4377908;32;20082;-70
2022/04/04 05:06:36;;;;;;;4.68;3.10;;;;;;;-1.21;64.96;99121.81;4378154;32;20079;-71
2022/04/04 05:09:03;;;;;;;4.97;2.78;;;;;;;-1.10;64.37;99109.37;4378006;32;20162;-71
2022/04/04 05:11:31;;;;;;;10.52;3.25;;;;;;;-0.78;64.40;99119.41;4378014;32;20117;-71
2022/04/04 05:13:58;;;;;;;3.85;2.42;;;;;;;-0.55;62.63;99116.78;4378112;32;20099;-71
2022/04/04 05:16:28;;;;;;;8.05;4.25;;;;;;;-0.49;61.53;99126.00;4378006;32;20091;-71
2022/04/04 05:18:56;;;;;;;6.32;3.65;;;;;;;-0.46;60.56;99125.88;4378898;32;20113;-69
2022/04/04 05:21:23;;;;;;;6.30;3.40;;;;;;;-0.38;62.06;99123.87;4379920;32;20452;-70
2022/04/04 05:23:50;;;;;;;7.10;3.33;;;;;;;-0.51;60.28;99127.00;4379828;32;20155;-70
2022/04/04 05:26:18;;;;;;;6.68;3.25;;;;;;;-0.52;60.53;99127.88;4379879;32;20410;-70
2022/04/04 05:28:45;;;;;;;5.65;3.35;;;;;;;-0.47;63.79;99120.81;4380037;32;20113;-70
2022/04/04 05:31:12;;;;;;;7.22;3.00;;;;;;;-0.23;61.66;99134.47;4379997;32;20664;-70
2022/04/04 05:33:39;;;;;;;5.32;3.05;;;;;;;0.00;61.96;99131.00;4380176;32;20197;-72
2022/04/04 05:36:07;;;;;;;3.65;2.72;;;;;;;0.02;64.34;99134.34;4379852;32;20141;-72
2022/04/04 05:38:35;;;;;;;6.87;3.17;;;;;;;0.42;62.44;99139.59;4380326;32;20095;-72
2022/04/04 05:41:02;;;;;;;6.82;3.70;;;;;;;0.52;59.83;99131.41;4366513;32;20385;-72
2022/04/04 05:43:29;;;;;;;5.03;3.55;;;;;;;0.86;59.48;99144.59;4379897;32;20155;-72
2022/04/04 05:45:56;;;;;;;9.55;4.45;;;;;;;0.75;59.96;99137.31;4380068;32;20087;-72
2022/04/04 05:48:27;;;;;;;6.28;3.42;;;;;;;1.17;59.79;99141.50;4379886;32;20110;-71
2022/04/04 05:50:54;;;;;;;5.82;3.60;;;;;;;0.86;58.78;99145.44;4379966;32;20094;-72
2022/04/04 05:53:22;;;;;;;8.55;3.55;;;;;;;0.52;59.49;99140.88;4379965;32;20436;-72
2022/04/04 05:55:49;;;;;;;11.25;4.60;;;;;;;0.55;60.01;99147.66;4379831;32;20420;-71
2022/04/04 06:01:47;;;;;;;10.70;4.28;;;;;;;0.63;59.78;99149.00;4379741;32;20210;-71
2022/04/04 06:04:14;;;;;;;6.03;4.00;;;;;;;0.27;61.64;99141.91;4379041;32;20094;-72
2022/04/04 06:10:15;;;;;;;9.63;3.90;;;;;;;1.02;59.35;99150.75;4379686;32;20460;-71
2022/04/04 06:16:13;;;;;;;5.75;3.90;;;;;;;1.04;60.84;99158.44;4379339;32;20153;-72
2022/04/04 06:18:41;;;;;;;6.20;3.92;;;;;;;1.14;59.89;99171.78;4379499;32;20099;-71
2022/04/04 06:21:08;;;;;;;8.20;4.43;;;;;;;1.10;60.97;99168.47;4379631;32;20129;-72
2022/04/04 06:23:36;;;;;;;9.43;4.22;;;;;;;1.27;61.28;99172.06;4379530;32;20357;-72
2022/04/04 06:26:06;;;;;;;9.07;4.50;;;;;;;0.95;60.78;99171.72;4379481;32;20095;-71
2022/04/04 06:28:35;;;;;;;11.27;4.97;;;;;;;1.12;60.35;99171.84;4379728;32;20109;-71
2022/04/04 06:31:03;;;;;;;8.52;4.72;;;;;;;1.24;61.39;99176.47;4378977;32;20117;-71
2022/04/04 06:37:02;;;;;;;10.02;4.72;;;;;;;1.28;60.69;99182.31;4379722;32;20440;-72
2022/04/04 06:43:00;;;;;;;8.13;3.87;;;;;;;1.36;61.45;99174.22;4379692;32;20169;-72
2022/04/04 06:45:27;;;;;;;8.00;4.70;;;;;;;1.65;60.22;99178.09;4378435;32;20780;-71
2022/04/04 06:47:54;;;;;;;8.10;5.22;;;;;;;1.58;60.72;99180.09;4379652;32;20568;-72
2022/04/04 06:53:53;;;;;;;11.43;5.35;;;;;;;1.45;61.27;99183.31;4379675;32;20118;-72
2022/04/04 06:56:20;;;;;;;6.90;4.45;;;;;;;1.45;62.02;99191.88;4379532;32;20141;-71
2022/04/04 06:58:47;;;;;;;9.27;4.82;;;;;;;1.53;59.75;99188.94;4379136;32;20082;-71
2022/04/04 07:04:45;;;;;;;9.93;4.82;;;;;;;1.45;60.20;99183.31;4379244;32;20122;-69
2022/04/04 07:10:43;;;;;;;7.93;5.03;;;;;;;1.58;58.71;99184.44;4379467;32;20587;-68
2022/04/04 07:13:10;;;;;;;6.97;4.18;;;;;;;1.82;59.87;99186.78;4379282;32;20094;-71
2022/04/04 07:19:12;;;;;;;10.23;5.78;;;;;;;1.87;60.90;99183.06;4379409;32;20213;-71
2022/04/04 07:21:39;;;;;;;8.73;4.93;;;;;;;1.86;59.46;99188.31;4379676;32;20136;-70
2022/04/04 07:27:40;;;;;;;10.63;5.03;;;;;;;2.18;58.75;99189.38;4378340;32;20106;-70
2022/04/04 07:30:10;;;;;;;6.72;4.70;;;;;;;2.23;59.13;99187.41;4379533;32;20145;-70
2022/04/04 07:32:38;;;;;;;8.77;4.80;;;;;;;2.10;57.92;99187.13;4379502;32;20082;-70
2022/04/04 07:35:09;;;;;;;7.47;4.62;;;;;;;2.23;58.31;99192.56;4379398;32;20160;-70
2022/04/04 07:37:41;;;;;;;10.23;4.72;;;;;;;2.16;59.59;99196.34;4379175;32;20098;-70
2022/04/04 07:40:11;;;;;;;8.10;4.78;;;;;;;2.43;58.49;99189.00;4379384;32;20128;-70
2022/04/04 07:42:39;;;;;;;7.12;4.47;;;;;;;2.43;59.31;99193.34;4377919;32;20105;-69
2022/04/04 07:48:38;;;;;;;6.07;3.95;;;;;;;2.55;58.99;99195.34;4379345;32;20136;-68
2022/04/04 07:54:36;;;;;;;6.65;4.37;;;;;;;2.85;58.92;99186.97;4379339;32;20534;-70
2022/04/04 08:00:34;;;;;;;8.43;4.68;;;;;;;3.04;59.51;99188.59;4379092;32;20121;-70
2022/04/04 08:03:02;;;;;;;6.80;4.15;;;;;;;2.58;57.44;99191.78;4378929;32;20133;-70
2022/04/04 08:08:59;;;;;;;9.18;4.68;;;;;;;3.05;54.98;99185.94;4379059;32;20102;-71
2022/04/04 08:11:27;;;;;;;8.13;4.40;;;;;;;2.94;54.92;99183.06;4379074;32;20542;-71
2022/04/04 08:13:55;;;;;;;7.20;4.37;;;;;;;3.29;56.97;99185.59;4378905;32;20142;-70
2022/04/04 08:19:53;;;;;;;6.85;4.20;;;;;;;3.60;54.76;99179.56;4378822;32;20145;-71
2022/04/04 08:22:22;;;;;;;10.57;4.82;;;;;;;3.69;54.86;99181.69;4378700;32;20453;-70
2022/04/04 08:24:50;;;;;;;6.37;3.80;;;;;;;3.70;56.93;99180.75;4378832;32;20082;-71
2022/04/04 08:27:18;;;;;;;7.72;3.95;;;;;;;3.63;54.47;99179.41;4378496;32;20156;-70
2022/04/04 08:29:45;;;;;;;6.30;4.10;;;;;;;3.87;54.77;99176.41;4378845;32;20117;-70
2022/04/04 08:32:12;;;;;;;8.52;4.35;;;;;;;3.61;52.58;99173.50;4378749;32;20099;-71
2022/04/04 08:34:40;;;;;;;6.35;4.20;;;;;;;4.16;53.40;99168.78;4378711;32;20099;-71
2022/04/04 08:40:38;;;;;;;6.90;4.37;;;;;;;4.02;51.55;99166.97;4378538;32;20109;-71
2022/04/04 08:46:37;;;;;;;5.68;4.22;;;;;;;4.42;52.14;99164.69;4378593;32;20161;-71
2022/04/04 08:49:06;;;;;;;5.70;3.78;;;;;;;4.51;51.51;99158.12;4378363;32;20082;-70
2022/04/04 08:51:35;;;;;;;4.93;3.80;;;;;;;4.29;48.02;99159.38;4378527;32;20144;-70
2022/04/04 08:54:02;;;;;;;5.00;3.00;;;;;;;4.41;48.89;99147.47;4379354;32;20161;-71
2022/04/04 08:56:30;;;;;;;7.43;3.62;;;;;;;4.60;48.50;99145.47;4380313;32;20126;-72
2022/04/04 08:58:57;;;;;;;7.57;4.00;;;;;;;4.62;51.05;99145.38;4380298;32;20105;-71
2022/04/04 09:01:27;;;;;;;8.05;4.35;;;;;;;4.97;51.33;99145.88;4380340;32;20513;-71
2022/04/04 09:04:01;;;;;;;4.97;3.60;;;;;;;4.99;50.21;99145.78;4380118;32;20091;-70
2022/04/04 09:06:28;;;;;;;;;;;;;;;4.75;49.51;99135.09;4380580;32;20169;-71
2022/04/04 09:08:56;;;;;;;8.38;3.45;;;;;;;4.98;52.54;99136.31;4380171;32;19991;-70
2022/04/04 09:14:56;;;;;;;4.95;3.28;;;;;;;4.93;45.87;99133.16;4380031;32;20154;-71
2022/04/04 09:17:27;;;;;;;3.90;2.47;;;;;;;5.39;45.29;99127.78;4380021;32;20094;-71
2022/04/04 09:23:54;;;;;;;5.20;2.97;;;;;;;5.45;45.18;99126.53;4380048;32;20222;-72
2022/04/04 09:26:30;;;;;;;4.45;3.25;;;;;;;5.94;46.17;99120.84;4379570;32;20190;-71
2022/04/04 09:29:02;;;;;;;4.95;3.00;;;;;;;6.10;45.41;99119.88;4379734;32;20146;-72
2022/04/04 09:31:29;;;;;;;6.25;3.58;;;;;;;5.66;44.52;99117.41;4379962;32;20482;-72
2022/04/04 09:37:32;;;;;;;5.10;3.37;;;;;;;5.91;44.67;99100.22;4379893;32;20121;-70
2022/04/04 09:43:49;;;;;;;3.47;2.62;;;;;;;5.82;44.75;99100.81;4379513;32;20489;-71
2022/04/04 09:49:47;;;;;;;3.58;2.55;;;;;;;5.48;44.60;99092.56;4379903;32;20447;-71
2022/04/04 09:52:14;;;;;;;3.67;3.00;;;;;;;5.83;44.08;99087.72;4380012;32;20502;-71
2022/04/04 09:58:15;;;;;;;6.43;3.70;;;;;;;6.60;45.56;99081.00;4379959;32;20144;-72
2022/04/04 10:00:44;;;;;;;6.43;4.20;;;;;;;6.85;44.46;99067.16;4380079;32;20094;-71
2022/04/04 10:03:13;;;;;;;7.47;3.58;;;;;;;6.73;43.77;99067.03;4379831;32;20115;-72
2022/04/04 10:05:44;;;;;;;9.75;3.58;;;;;;;6.33;43.14;99069.75;4379049;32;20130;-71
2022/04/04 10:11:42;;;;;;;6.85;3.62;;;;;;;6.18;44.74;99069.00;4379738;32;20125;-70
2022/04/04 10:17:46;;;;;;;6.00;3.25;;;;;;;6.48;43.25;99054.88;4379675;32;20109;-72
2022/04/04 10:20:14;;;;;;;5.00;3.10;;;;;;;6.26;43.37;99063.28;4379920;32;20109;-71
2022/04/04 10:22:41;;;;;;;5.10;2.67;;;;;;;6.43;43.08;99061.34;4366128;32;20099;-72
2022/04/04 10:25:09;;;;;;;9.40;3.20;;;;;;;6.60;43.27;99060.19;4366497;32;20094;-72
2022/04/04 10:27:37;;;;;;;5.37;3.03;;;;;;;6.61;42.83;99056.66;4379440;32;20082;-73
2022/04/04 10:30:06;;;;;;;4.87;2.78;;;;;;;6.64;42.46;99052.06;4379426;32;20075;-70
2022/04/04 10:32:34;;;;;;;4.75;2.95;;;;;;;6.50;43.80;99047.81;4379433;32;20090;-71
2022/04/04 10:38:37;;;;;;;4.50;2.28;;;;;;;6.90;42.28;99047.69;4379590;32;20164;-71
2022/04/04 10:41:08;;;;;;;4.55;3.05;;;;;;;7.73;40.36;99034.88;4379500;32;20445;-71
2022/04/04 10:43:39;;;;;;;4.20;2.37;;;;;;;7.12;40.62;99033.13;4378976;32;20091;-70
2022/04/04 10:49:37;;;;;;;5.50;2.75;;;;;;;7.50;39.84;99029.56;4379266;32;20159;-72
2022/04/04 10:55:37;;;;;;;6.72;3.05;;;;;;;7.24;39.21;99021.84;4377848;32;20125;-70
2022/04/04 11:01:34;;;;;;;5.70;3.15;;;;;;;7.83;40.47;99015.00;4379527;32;20148;-71
2022/04/04 11:07:40;;;;;;;4.15;3.08;;;;;;;7.39;41.31;99006.06;4379506;32;20467;-71
2022/04/04 11:13:49;;;;;;;6.53;3.75;;;;;;;9.01;42.76;99007.78;4379461;32;20622;-71
2022/04/04 11:20:04;;;;;;;6.15;3.70;;;;;;;8.24;42.20;98991.97;4379399;32;20170;-70
2022/04/04 11:22:34;;;;;;;6.15;3.45;;;;;;;8.32;42.87;99000.03;4378671;32;20145;-71
2022/04/04 11:28:36;;;;;;;4.87;3.62;;;;;;;8.33;40.84;98992.09;4378666;32;20373;-70
2022/04/04 11:31:08;;;;;;;5.65;3.67;;;;;;;8.22;43.31;98988.63;4379170;32;20083;-71
2022/04/04 11:36:54;;;;;;;7.87;4.20;;;;;;;8.11;43.01;98997.28;4378828;32;20117;-70
2022/04/04 11:42:52;;;;;;;5.97;3.92;;;;;;;8.39;41.93;98985.56;4378970;32;20160;-70
2022/04/04 11:48:54;;;;;;;5.90;4.20;;;;;;;8.78;43.45;98982.63;4379149;32;20113;-71
2022/04/04 11:51:25;;;;;;;6.60;3.65;;;;;;;8.90;42.61;98979.03;4378916;32;20380;-71
2022/04/04 11:54:09;;;;;;;5.28;4.10;;;;;;;8.65;43.61;98975.75;4378949;32;20098;-72
2022/04/04 12:00:00;;;;;;;5.05;3.25;;;;;;;8.56;44.59;98968.62;4378935;32;20130;-71
2022/04/04 12:02:38;;;;;;;6.45;3.25;;;;;;;8.31;42.76;98960.06;4366264;32;20095;-72
2022/04/04 12:08:36;;;;;;;5.53;3.97;;;;;;;8.63;42.86;98954.16;4378878;32;20512;-70
2022/04/04 12:14:40;;;;;;;5.68;3.97;;;;;;;8.88;43.91;98944.38;4378882;32;20142;-71
2022/04/04 12:20:40;;;;;;;9.95;3.95;;;;;;;10.07;42.80;98922.44;4378733;32;20157;-71
2022/04/04 12:26:38;;;;;;;5.68;4.05;;;;;;;8.96;42.61;98926.31;4378930;32;20093;-71
2022/04/04 12:32:24;;;;;;;7.93;3.97;;;;;;;9.49;45.31;98907.22;4378811;32;20113;-71
2022/04/04 12:38:31;;;;;;;5.22;4.20;;;;;;;9.87;40.20;98891.88;4378847;32;20491;-72
2022/04/04 12:44:28;;;;;;;7.37;3.67;;;;;;;9.53;41.22;98881.63;4378531;32;20165;-72
2022/04/04 12:47:11;;;;;;;5.22;3.70;;;;;;;9.03;41.71;98885.66;4378501;32;20185;-72
2022/04/04 12:49:39;;;;;;;5.78;3.80;;;;;;;9.48;42.12;98870.72;4378641;32;20238;-72
2022/04/04 12:56:04;;;;;;;5.10;3.75;;;;;;;10.27;40.76;98859.69;4378586;32;20113;-71
2022/04/04 12:58:31;;;;;;;6.45;3.47;;;;;;;9.57;41.07;98851.66;4378333;32;20469;-71
2022/04/04 13:01:10;;;;;;;5.68;3.92;;;;;;;9.37;42.41;98851.53;4378252;32;20078;-70
2022/04/04 13:07:19;;;;;;;9.05;3.95;;;;;;;9.51;40.75;98853.00;4377660;32;20153;-72
2022/04/04 13:13:17;;;;;;;7.62;4.15;;;;;;;9.11;43.89;98831.94;4378223;32;20227;-72
2022/04/04 13:15:47;;;;;;;6.75;4.18;;;;;;;9.29;43.67;98838.25;4378210;32;20567;-72
2022/04/04 13:18:34;;;;;;;5.97;4.40;;;;;;;9.26;44.07;98833.28;4378307;32;20090;-72
2022/04/04 13:21:01;;;;;;;5.60;3.87;;;;;;;8.75;46.05;98836.59;4378235;32;20117;-72
2022/04/04 13:23:29;;;;;;;11.00;4.47;;;;;;;9.29;43.67;98833.03;4378174;32;20075;-71
2022/04/04 13:25:56;;;;;;;5.72;4.10;;;;;;;8.55;44.00;98832.97;4378187;32;20094;-72
2022/04/04 13:28:24;;;;;;;5.72;4.12;;;;;;;8.40;45.24;98835.00;4378168;32;20098;-72
2022/04/04 13:30:52;;;;;;;7.05;4.25;;;;;;;8.31;44.67;98823.47;4378004;32;20170;-72
2022/04/04 13:33:19;;;;;;;6.53;4.00;;;;;;;8.43;45.35;98822.53;4378137;32;20079;-72
2022/04/04 13:35:47;;;;;;;5.95;3.97;;;;;;;8.37;45.88;98812.56;4378041;32;20121;-71
2022/04/04 13:38:14;;;;;;;6.40;4.30;;;;;;;8.65;45.06;98819.06;4377983;32;20086;-72
2022/04/04 13:40:41;;;;;;;7.15;3.90;;;;;;;8.17;44.51;98808.91;4379593;32;20117;-72
2022/04/04 13:43:09;;;;;;;5.78;3.92;;;;;;;8.57;46.24;98811.00;4380082;32;20106;-71
2022/04/04 13:45:36;;;;;;;6.45;4.95;;;;;;;8.67;45.01;98804.06;4380357;32;20102;-71
2022/04/04 13:48:03;;;;;;;9.63;5.22;;;;;;;8.32;47.67;98799.88;4380146;32;20109;-71
2022/04/04 13:50:31;;;;;;;10.07;5.30;;;;;;;8.50;47.74;98796.78;4380278;32;20084;-72
2022/04/04 13:56:30;;;;;;;6.68;4.55;;;;;;;8.50;48.81;98781.13;4380097;32;20174;-71
2022/04/04 13:58:58;;;;;;;6.62;5.05;;;;;;;8.40;48.70;98777.56;4379822;32;20157;-72
2022/04/04 14:01:27;;;;;;;8.48;4.95;;;;;;;8.40;47.26;98788.81;4379836;32;20121;-71
2022/04/04 14:03:56;;;;;;;15.10;5.57;;;;;;;8.51;48.58;98770.56;4379836;32;20118;-71
2022/04/04 14:06:23;;;;;;;7.90;5.10;;;;;;;8.27;49.39;98778.53;4379848;32;20125;-71
2022/04/04 14:12:22;;;;;;;9.02;5.05;;;;;;;8.23;48.96;98761.47;4380040;32;20170;-71
2022/04/04 14:14:50;;;;;;;7.20;5.00;;;;;;;8.42;48.70;98755.59;4379724;32;20094;-71
2022/04/04 14:17:19;;;;;;;6.72;4.62;;;;;;;8.22;49.28;98749.38;4379650;32;20086;-71
2022/04/04 14:19:46;;;;;;;8.18;4.97;;;;;;;8.40;49.41;98746.22;4379789;32;20098;-71
2022/04/04 14:22:19;;;;;;;6.47;4.40;;;;;;;8.60;49.17;98749.84;4379830;32;20133;-71
2022/04/04 14:24:49;;;;;;;8.82;4.90;;;;;;;8.46;48.88;98745.75;4379686;32;20595;-71
2022/04/04 14:27:16;;;;;;;7.57;5.32;;;;;;;8.45;49.13;98744.94;4379589;32;20098;-71
2022/04/04 14:29:43;;;;;;;7.25;4.78;;;;;;;8.23;49.68;98742.38;4379655;32;20117;-71
2022/04/04 14:32:10;;;;;;;7.82;4.93;;;;;;;8.13;51.22;98739.66;4379717;32;20141;-71
2022/04/04 14:34:37;;;;;;;7.22;4.68;;;;;;;8.02;50.33;98735.28;4379721;32;20118;-71
2022/04/04 14:37:05;;;;;;;8.13;5.07;;;;;;;7.96;50.14;98739.25;4379705;32;20091;-71
2022/04/04 14:39:33;;;;;;;8.23;4.82;;;;;;;7.91;50.15;98738.75;4379725;32;20464;-71
2022/04/04 14:42:00;;;;;;;6.37;4.90;;;;;;;8.06;50.34;98725.47;4379757;32;20427;-71
2022/04/04 14:44:27;;;;;;;7.20;5.10;;;;;;;8.11;51.31;98716.28;4379595;32;20114;-71